createdAt,value
2023-02-03T00:00:36.784Z,0.73
2023-02-03T00:04:09.017Z,0.60
2023-02-03T00:07:43.624Z,0.93
2023-02-03T00:11:09.779Z,0.52
2023-02-03T00:14:45.458Z,0.80
2023-02-03T00:18:28.819Z,0.82
2023-02-03T00:21:43.075Z,0.62
2023-02-03T00:25:15.721Z,0.57
2023-02-03T00:28:54.656Z,0.68
2023-02-03T00:32:26.154Z,0.52
2023-02-03T00:36:06.406Z,0.60
2023-02-03T00:39:44.051Z,0.80
2023-02-03T00:43:14.417Z,0.40
2023-02-03T00:46:48.675Z,0.73
2023-02-03T00:50:19.003Z,1.25
2023-02-03T00:53:40.213Z,1.30
2023-02-03T00:57:16.308Z,0.50
2023-02-03T01:00:35.117Z,0.88
2023-02-03T01:04:08.716Z,0.68
2023-02-03T01:07:42.427Z,1.02
2023-02-03T01:11:20.242Z,0.90
2023-02-03T01:14:53.203Z,0.55
2023-02-03T01:18:21.314Z,1.00
2023-02-03T01:21:54.608Z,0.40
2023-02-03T01:25:27.665Z,0.62
2023-02-03T01:28:50.534Z,0.50
2023-02-03T01:32:08.712Z,0.47
2023-02-03T01:35:44.448Z,0.32
2023-02-03T01:39:04.432Z,0.62
2023-02-03T01:42:22.725Z,0.60
2023-02-03T01:45:46.774Z,0.60
2023-02-03T01:49:36.630Z,0.57
2023-02-03T01:53:13.308Z,0.43
2023-02-03T01:56:57.186Z,0.57
2023-02-03T02:00:37.509Z,0.43
2023-02-03T02:03:57.685Z,0.93
2023-02-03T02:07:38.142Z,0.40
2023-02-03T02:10:54.725Z,1.48
2023-02-03T02:14:19.983Z,0.35
2023-02-03T02:17:49.024Z,0.68
2023-02-03T02:21:29.164Z,0.85
2023-02-03T02:25:28.976Z,0.65
2023-02-03T02:29:08.815Z,0.52
2023-02-03T02:32:34.847Z,0.52
2023-02-03T02:44:20.361Z,1.08
2023-02-03T02:47:40.975Z,0.60
2023-02-03T02:51:16.819Z,0.43
2023-02-03T02:54:57.904Z,0.55
2023-02-03T02:58:19.540Z,0.50
2023-02-03T03:01:36.858Z,0.60
2023-02-03T03:05:15.852Z,0.50
2023-02-03T03:08:42.599Z,0.90
2023-02-03T03:12:26.318Z,1.15
2023-02-03T03:15:46.053Z,0.52
2023-02-03T03:19:29.373Z,0.60
2023-02-03T03:23:01.882Z,1.15
2023-02-03T03:26:36.263Z,0.57
2023-02-03T03:30:21.702Z,0.43
2023-02-03T03:33:55.990Z,0.40
2023-02-03T03:41:21.198Z,0.50
2023-02-03T03:44:55.019Z,0.50
2023-02-03T03:48:17.717Z,0.65
2023-02-03T03:51:50.565Z,0.32
2023-02-03T03:55:28.876Z,0.30
2023-02-03T03:59:13.922Z,0.73
2023-02-03T04:02:55.946Z,0.45
2023-02-03T04:06:13.853Z,0.60
2023-02-03T04:09:32.321Z,0.70
2023-02-03T04:12:53.924Z,0.95
2023-02-03T04:16:24.774Z,0.80
2023-02-03T04:19:42.114Z,0.45
2023-02-03T04:23:20.072Z,0.30
2023-02-03T04:26:59.002Z,0.40
2023-02-03T04:30:18.396Z,0.88
2023-02-03T04:33:51.324Z,0.47
2023-02-03T04:48:07.924Z,0.25
2023-02-03T04:51:36.426Z,0.40
2023-02-03T04:55:15.389Z,0.50
2023-02-03T04:58:34.390Z,0.62
2023-02-03T05:01:54.850Z,0.30
2023-02-03T05:05:31.731Z,0.25
2023-02-03T05:09:07.457Z,0.40
2023-02-03T05:12:43.321Z,0.30
2023-02-03T05:16:17.248Z,0.80
2023-02-03T05:19:52.684Z,1.17
2023-02-03T05:26:50.503Z,0.50
2023-02-03T05:30:09.888Z,1.52
2023-02-03T05:33:37.426Z,1.00
2023-02-03T05:37:06.919Z,1.02
2023-02-03T05:41:03.414Z,0.90
2023-02-03T05:44:21.462Z,1.05
2023-02-03T05:47:40.032Z,0.60
2023-02-03T05:51:15.205Z,0.88
2023-02-03T05:57:59.024Z,0.75
2023-02-03T06:01:32.462Z,1.35
2023-02-03T06:05:06.389Z,1.35
2023-02-03T06:08:36.833Z,1.05
2023-02-03T06:11:56.039Z,0.90
2023-02-03T06:15:20.235Z,0.75
2023-02-03T06:18:47.924Z,0.45
2023-02-03T06:25:44.298Z,0.30
2023-02-03T06:29:16.739Z,0.88
2023-02-03T06:32:50.696Z,0.50
2023-02-03T06:36:15.607Z,0.62
2023-02-03T06:39:49.741Z,0.50
2023-02-03T06:43:06.863Z,0.70
2023-02-03T06:46:28.561Z,1.12
2023-02-03T06:50:05.131Z,1.08
2023-02-03T06:53:40.820Z,0.80
2023-02-03T06:57:00.102Z,1.60
2023-02-03T07:00:29.411Z,1.08
2023-02-03T07:04:08.360Z,1.30
2023-02-03T07:07:42.187Z,1.65
2023-02-03T07:11:23.842Z,0.85
2023-02-03T07:14:59.381Z,1.45
2023-02-03T07:18:53.330Z,0.88
2023-02-03T07:25:54.744Z,0.98
2023-02-03T07:29:19.887Z,1.50
2023-02-03T07:32:58.001Z,1.50
2023-02-03T07:47:43.889Z,1.17
2023-02-03T07:51:18.739Z,1.00
2023-02-03T07:54:46.022Z,0.88
2023-02-03T07:58:03.900Z,1.05
2023-02-03T08:01:35.736Z,1.30
2023-02-03T08:05:03.684Z,1.75
2023-02-03T08:08:46.664Z,0.50
2023-02-03T08:15:50.849Z,0.80
2023-02-03T08:19:41.244Z,0.68
2023-02-03T08:23:03.372Z,1.23
2023-02-03T08:26:39.637Z,1.20
2023-02-03T08:37:51.657Z,0.80
2023-02-03T08:41:31.435Z,1.58
2023-02-03T08:45:06.633Z,0.57
2023-02-03T08:48:41.533Z,1.02
2023-02-03T08:52:19.617Z,1.40
2023-02-03T09:02:56.930Z,1.83
2023-02-03T09:10:25.963Z,2.35
2023-02-03T09:13:46.422Z,3.10
2023-02-03T09:20:47.033Z,3.12
2023-02-03T09:24:15.664Z,4.60
2023-02-03T09:27:44.394Z,2.97
2023-02-03T09:31:20.994Z,2.45
2023-02-03T09:34:57.534Z,1.83
2023-02-03T09:38:35.299Z,2.35
2023-02-03T09:46:31.181Z,1.20
2023-02-03T09:50:06.929Z,2.00
2023-02-03T09:54:33.725Z,1.60
2023-02-03T10:02:48.160Z,1.98
2023-02-03T10:06:51.139Z,2.17
2023-02-03T10:10:49.177Z,3.05
2023-02-03T10:14:40.349Z,5.00
2023-02-03T10:18:23.451Z,2.95
2023-02-03T10:22:04.038Z,2.80
2023-02-03T10:26:08.990Z,1.30
2023-02-03T10:29:41.881Z,2.22
2023-02-03T10:33:30.535Z,2.42
2023-02-03T10:37:19.992Z,1.83
2023-02-03T10:40:48.065Z,3.58
2023-02-03T10:44:20.454Z,3.17
2023-02-03T10:47:59.113Z,2.62
2023-02-03T10:52:05.020Z,2.25
2023-02-03T10:55:33.965Z,2.53
2023-02-03T10:59:33.724Z,2.58
2023-02-03T11:03:26.361Z,2.20
2023-02-03T11:07:07.879Z,2.17
2023-02-03T11:10:41.302Z,1.83
2023-02-03T11:17:54.816Z,2.45
2023-02-03T11:21:33.936Z,1.58
2023-02-03T11:25:28.148Z,3.37
2023-02-03T11:29:08.447Z,2.15
2023-02-03T11:32:43.095Z,1.62
2023-02-03T11:36:20.784Z,1.23
2023-02-03T11:40:20.579Z,1.95
2023-02-03T11:43:56.132Z,2.28
2023-02-03T11:47:32.539Z,2.58
2023-02-03T11:51:34.449Z,1.48
2023-02-03T11:55:41.122Z,1.50
2023-02-03T11:59:20.960Z,0.75
2023-02-03T12:03:16.469Z,1.12
2023-02-03T12:07:03.293Z,0.52
2023-02-03T12:11:14.254Z,1.23
2023-02-03T12:15:02.405Z,0.65
2023-02-03T12:19:03.857Z,0.68
2023-02-03T12:22:49.041Z,1.27
2023-02-03T12:26:52.481Z,1.45
2023-02-03T12:30:37.573Z,1.10
2023-02-03T12:38:08.136Z,1.67
2023-02-03T12:41:42.547Z,1.60
2023-02-03T12:48:48.768Z,1.73
2023-02-03T12:52:50.595Z,1.55
2023-02-03T12:56:31.973Z,1.10
2023-02-03T13:00:17.191Z,1.85
2023-02-03T13:04:18.912Z,1.25
2023-02-03T13:08:01.774Z,1.50
2023-02-03T13:11:55.505Z,1.37
2023-02-03T13:15:35.921Z,1.95
2023-02-03T13:19:26.241Z,1.35
2023-02-03T13:26:49.152Z,1.27
2023-02-03T13:30:45.815Z,2.15
2023-02-03T13:34:36.851Z,3.20
2023-02-03T13:38:28.662Z,3.25
2023-02-03T13:42:26.976Z,3.15
2023-02-03T13:46:01.034Z,2.92
2023-02-03T13:49:37.068Z,2.90
2023-02-03T13:53:19.967Z,3.15
2023-02-03T13:57:07.132Z,4.22
2023-02-03T14:01:06.509Z,4.43
2023-02-03T14:04:36.971Z,4.85
2023-02-03T14:08:30.597Z,4.75
2023-02-03T14:12:18.204Z,4.85
2023-02-03T14:20:23.775Z,3.58
2023-02-03T14:23:55.576Z,3.22
2023-02-03T14:27:44.948Z,4.32
2023-02-03T14:35:22.770Z,3.03
2023-02-03T14:39:18.889Z,3.75
2023-02-03T14:43:10.112Z,4.05
2023-02-03T14:46:36.382Z,3.62
2023-02-03T14:50:31.448Z,2.20
2023-02-03T14:54:32.919Z,2.47
2023-02-03T14:58:18.466Z,2.75
2023-02-03T15:01:52.333Z,2.33
2023-02-03T15:09:00.853Z,2.40
2023-02-03T15:12:31.454Z,3.60
2023-02-03T15:16:20.668Z,1.73
2023-02-03T15:19:57.696Z,2.28
2023-02-03T15:23:56.731Z,2.72
2023-02-03T15:27:28.921Z,2.85
2023-02-03T15:31:13.533Z,2.35
2023-02-03T15:35:01.470Z,2.17
2023-02-03T15:38:42.086Z,1.85
2023-02-03T15:42:27.383Z,2.83
2023-02-03T15:46:07.198Z,2.05
2023-02-03T15:49:35.521Z,2.37
2023-02-03T15:53:19.970Z,2.50
2023-02-03T15:57:47.266Z,2.92
2023-02-03T16:01:51.244Z,2.00
2023-02-03T16:06:02.044Z,2.25
2023-02-03T16:14:31.216Z,2.30
2023-02-03T16:18:35.591Z,2.22
2023-02-03T16:22:47.945Z,2.97
2023-02-03T16:27:13.740Z,3.05
2023-02-03T16:35:46.852Z,3.05
2023-02-03T16:40:02.066Z,3.22
2023-02-03T16:44:12.776Z,3.00
2023-02-03T16:48:10.023Z,2.67
2023-02-03T16:52:15.046Z,3.65
2023-02-03T16:56:04.781Z,4.80
2023-02-03T17:08:02.824Z,2.83
2023-02-03T17:11:45.380Z,2.83
2023-02-03T17:37:17.569Z,2.50
2023-02-03T17:53:54.026Z,1.90
2023-02-03T18:01:25.152Z,2.00
2023-02-03T18:12:30.257Z,1.92
2023-02-03T18:16:05.073Z,2.15
2023-02-03T18:19:44.458Z,1.87
2023-02-03T18:23:17.878Z,1.98
2023-02-03T18:26:51.958Z,1.95
2023-02-03T18:50:13.801Z,1.62
2023-02-03T18:58:05.409Z,1.55
2023-02-03T21:35:04.466Z,1.00
2023-02-03T21:42:36.300Z,5.55
2023-02-03T21:54:37.441Z,0.65
2023-02-03T21:58:39.235Z,0.30
2023-02-03T22:03:50.001Z,0.65
2023-02-03T22:06:56.691Z,0.47
2023-02-03T22:37:03.862Z,0.50
2023-02-03T22:48:34.192Z,0.90
2023-02-03T22:56:01.569Z,0.65
2023-02-03T22:59:21.979Z,0.43
2023-02-03T23:02:59.915Z,0.88
2023-02-03T23:07:03.742Z,0.37
2023-02-03T23:11:14.295Z,0.75
2023-02-03T23:14:50.989Z,0.60
2023-02-03T23:18:31.405Z,1.15
2023-02-03T23:22:15.832Z,0.40
2023-02-03T23:25:57.234Z,0.73
2023-02-03T23:40:13.568Z,0.80
2023-02-03T23:43:52.118Z,0.50
2023-02-03T23:47:26.111Z,0.90
2023-02-03T23:51:04.452Z,1.02
2023-02-03T23:54:49.238Z,0.90
2023-02-03T23:58:25.662Z,0.50
